sensor_id;sensor_type;location;lat;lon;timestamp;P1;durP1;ratioP1;P2;durP2;ratioP2
35462;SDS011;21578;47.892;9.970;2022-07-24T00:01:14;9.13;;;8.20;;
35462;SDS011;21578;47.892;9.970;2022-07-24T00:06:01;9.67;;;8.77;;
35462;SDS011;21578;47.892;9.970;2022-07-24T00:10:48;9.40;;;8.60;;
35462;SDS011;21578;47.892;9.970;2022-07-24T00:15:35;10.80;;;9.10;;
35462;SDS011;21578;47.892;9.970;2022-07-24T00:20:24;9.77;;;8.93;;
35462;SDS011;21578;47.892;9.970;2022-07-24T00:25:11;10.57;;;9.57;;
35462;SDS011;21578;47.892;9.970;2022-07-24T00:29:58;10.57;;;9.57;;
35462;SDS011;21578;47.892;9.970;2022-07-24T00:34:45;9.30;;;8.33;;
35462;SDS011;21578;47.892;9.970;2022-07-24T00:39:34;10.03;;;8.87;;
35462;SDS011;21578;47.892;9.970;2022-07-24T00:44:21;10.13;;;9.23;;
35462;SDS011;21578;47.892;9.970;2022-07-24T00:49:09;9.30;;;8.50;;
35462;SDS011;21578;47.892;9.970;2022-07-24T00:53:57;9.77;;;8.77;;
35462;SDS011;21578;47.892;9.970;2022-07-24T00:58:46;10.20;;;9.40;;
35462;SDS011;21578;47.892;9.970;2022-07-24T01:03:33;9.77;;;8.97;;
35462;SDS011;21578;47.892;9.970;2022-07-24T01:08:20;9.20;;;8.33;;
35462;SDS011;21578;47.892;9.970;2022-07-24T01:13:07;8.67;;;7.97;;
35462;SDS011;21578;47.892;9.970;2022-07-24T01:17:57;9.90;;;8.90;;
35462;SDS011;21578;47.892;9.970;2022-07-24T01:22:46;10.13;;;9.30;;
35462;SDS011;21578;47.892;9.970;2022-07-24T01:27:33;9.80;;;8.97;;
35462;SDS011;21578;47.892;9.970;2022-07-24T01:32:20;9.87;;;9.00;;
35462;SDS011;21578;47.892;9.970;2022-07-24T01:37:07;9.70;;;8.80;;
35462;SDS011;21578;47.892;9.970;2022-07-24T01:41:55;9.67;;;8.77;;
35462;SDS011;21578;47.892;9.970;2022-07-24T01:46:42;9.10;;;8.33;;
35462;SDS011;21578;47.892;9.970;2022-07-24T01:51:29;10.60;;;9.37;;
35462;SDS011;21578;47.892;9.970;2022-07-24T01:56:17;8.93;;;8.13;;
35462;SDS011;21578;47.892;9.970;2022-07-24T02:01:05;10.47;;;9.50;;
35462;SDS011;21578;47.892;9.970;2022-07-24T02:05:52;9.77;;;8.87;;
35462;SDS011;21578;47.892;9.970;2022-07-24T02:10:39;10.43;;;9.43;;
35462;SDS011;21578;47.892;9.970;2022-07-24T02:15:26;10.00;;;9.10;;
35462;SDS011;21578;47.892;9.970;2022-07-24T02:20:15;11.47;;;10.37;;
35462;SDS011;21578;47.892;9.970;2022-07-24T02:25:02;10.67;;;9.70;;
35462;SDS011;21578;47.892;9.970;2022-07-24T02:29:50;10.70;;;9.77;;
35462;SDS011;21578;47.892;9.970;2022-07-24T02:34:37;11.33;;;10.37;;
35462;SDS011;21578;47.892;9.970;2022-07-24T02:39:25;11.20;;;10.20;;
35462;SDS011;21578;47.892;9.970;2022-07-24T02:44:12;11.00;;;10.07;;
35462;SDS011;21578;47.892;9.970;2022-07-24T02:49:01;11.53;;;10.33;;
35462;SDS011;21578;47.892;9.970;2022-07-24T02:53:48;12.47;;;11.37;;
35462;SDS011;21578;47.892;9.970;2022-07-24T02:58:37;12.47;;;11.37;;
35462;SDS011;21578;47.892;9.970;2022-07-24T03:03:24;12.43;;;11.27;;
35462;SDS011;21578;47.892;9.970;2022-07-24T03:08:11;12.50;;;11.33;;
35462;SDS011;21578;47.892;9.970;2022-07-24T03:12:58;11.43;;;10.43;;
35462;SDS011;21578;47.892;9.970;2022-07-24T03:17:50;11.27;;;10.30;;
35462;SDS011;21578;47.892;9.970;2022-07-24T03:22:38;11.57;;;10.57;;
35462;SDS011;21578;47.892;9.970;2022-07-24T03:27:25;12.97;;;11.60;;
35462;SDS011;21578;47.892;9.970;2022-07-24T03:32:12;13.20;;;12.03;;
35462;SDS011;21578;47.892;9.970;2022-07-24T03:37:01;13.50;;;12.20;;
35462;SDS011;21578;47.892;9.970;2022-07-24T03:41:48;14.13;;;12.83;;
35462;SDS011;21578;47.892;9.970;2022-07-24T03:46:35;13.37;;;12.27;;
35462;SDS011;21578;47.892;9.970;2022-07-24T03:51:22;13.30;;;11.97;;
35462;SDS011;21578;47.892;9.970;2022-07-24T03:56:10;14.37;;;12.97;;
35462;SDS011;21578;47.892;9.970;2022-07-24T04:00:57;14.20;;;12.80;;
35462;SDS011;21578;47.892;9.970;2022-07-24T04:05:44;13.87;;;12.67;;
35462;SDS011;21578;47.892;9.970;2022-07-24T04:10:31;13.80;;;12.40;;
35462;SDS011;21578;47.892;9.970;2022-07-24T04:15:20;13.30;;;12.10;;
35462;SDS011;21578;47.892;9.970;2022-07-24T04:20:08;13.03;;;11.83;;
35462;SDS011;21578;47.892;9.970;2022-07-24T04:24:56;13.50;;;12.20;;
35462;SDS011;21578;47.892;9.970;2022-07-24T04:29:43;12.80;;;11.60;;
35462;SDS011;21578;47.892;9.970;2022-07-24T04:34:31;12.50;;;11.40;;
35462;SDS011;21578;47.892;9.970;2022-07-24T04:39:18;14.07;;;12.63;;
35462;SDS011;21578;47.892;9.970;2022-07-24T04:44:05;13.10;;;11.80;;
35462;SDS011;21578;47.892;9.970;2022-07-24T04:48:52;14.20;;;12.67;;
35462;SDS011;21578;47.892;9.970;2022-07-24T04:53:41;14.33;;;13.07;;
35462;SDS011;21578;47.892;9.970;2022-07-24T04:58:28;14.73;;;13.33;;
35462;SDS011;21578;47.892;9.970;2022-07-24T05:03:15;15.07;;;13.67;;
35462;SDS011;21578;47.892;9.970;2022-07-24T05:08:02;15.10;;;13.57;;
35462;SDS011;21578;47.892;9.970;2022-07-24T05:12:51;13.80;;;12.60;;
35462;SDS011;21578;47.892;9.970;2022-07-24T05:17:38;14.47;;;13.17;;
35462;SDS011;21578;47.892;9.970;2022-07-24T05:22:25;15.97;;;14.47;;
35462;SDS011;21578;47.892;9.970;2022-07-24T05:27:12;14.77;;;13.47;;
35462;SDS011;21578;47.892;9.970;2022-07-24T05:32:00;14.50;;;13.10;;
35462;SDS011;21578;47.892;9.970;2022-07-24T05:36:47;15.30;;;14.00;;
35462;SDS011;21578;47.892;9.970;2022-07-24T05:41:34;17.50;;;15.90;;
35462;SDS011;21578;47.892;9.970;2022-07-24T05:46:22;16.43;;;14.83;;
35462;SDS011;21578;47.892;9.970;2022-07-24T05:51:10;15.87;;;14.40;;
35462;SDS011;21578;47.892;9.970;2022-07-24T05:55:57;18.60;;;16.80;;
35462;SDS011;21578;47.892;9.970;2022-07-24T06:00:44;18.00;;;16.30;;
35462;SDS011;21578;47.892;9.970;2022-07-24T06:05:32;17.93;;;16.23;;
35462;SDS011;21578;47.892;9.970;2022-07-24T06:10:20;17.60;;;16.10;;
35462;SDS011;21578;47.892;9.970;2022-07-24T06:15:08;17.73;;;16.03;;
35462;SDS011;21578;47.892;9.970;2022-07-24T06:19:55;16.07;;;14.57;;
35462;SDS011;21578;47.892;9.970;2022-07-24T06:24:42;16.20;;;14.80;;
35462;SDS011;21578;47.892;9.970;2022-07-24T06:29:30;15.30;;;13.70;;
35462;SDS011;21578;47.892;9.970;2022-07-24T06:34:17;15.57;;;14.07;;
35462;SDS011;21578;47.892;9.970;2022-07-24T06:39:08;15.20;;;13.60;;
35462;SDS011;21578;47.892;9.970;2022-07-24T06:43:55;15.00;;;13.53;;
35462;SDS011;21578;47.892;9.970;2022-07-24T06:48:45;14.67;;;13.13;;
35462;SDS011;21578;47.892;9.970;2022-07-24T06:53:32;14.23;;;13.00;;
35462;SDS011;21578;47.892;9.970;2022-07-24T06:58:20;14.10;;;12.90;;
35462;SDS011;21578;47.892;9.970;2022-07-24T07:03:07;13.97;;;12.47;;
35462;SDS011;21578;47.892;9.970;2022-07-24T07:07:56;16.87;;;15.27;;
35462;SDS011;21578;47.892;9.970;2022-07-24T07:12:43;13.80;;;12.43;;
35462;SDS011;21578;47.892;9.970;2022-07-24T07:17:30;12.93;;;11.63;;
35462;SDS011;21578;47.892;9.970;2022-07-24T07:22:17;12.93;;;11.77;;
35462;SDS011;21578;47.892;9.970;2022-07-24T07:27:09;33.80;;;30.30;;
35462;SDS011;21578;47.892;9.970;2022-07-24T07:31:56;12.10;;;11.00;;
35462;SDS011;21578;47.892;9.970;2022-07-24T07:36:43;14.50;;;13.00;;
35462;SDS011;21578;47.892;9.970;2022-07-24T07:41:31;13.03;;;11.93;;
35462;SDS011;21578;47.892;9.970;2022-07-24T07:46:19;12.63;;;11.53;;
35462;SDS011;21578;47.892;9.970;2022-07-24T07:51:06;13.03;;;11.83;;
35462;SDS011;21578;47.892;9.970;2022-07-24T07:55:53;13.93;;;12.13;;
35462;SDS011;21578;47.892;9.970;2022-07-24T08:00:40;13.37;;;12.03;;
35462;SDS011;21578;47.892;9.970;2022-07-24T08:05:29;13.50;;;12.20;;
35462;SDS011;21578;47.892;9.970;2022-07-24T08:10:16;31.93;;;28.60;;
35462;SDS011;21578;47.892;9.970;2022-07-24T08:15:03;12.90;;;11.80;;
35462;SDS011;21578;47.892;9.970;2022-07-24T08:19:51;13.67;;;12.43;;
35462;SDS011;21578;47.892;9.970;2022-07-24T08:24:40;12.77;;;11.50;;
35462;SDS011;21578;47.892;9.970;2022-07-24T08:29:27;13.10;;;11.90;;
35462;SDS011;21578;47.892;9.970;2022-07-24T08:34:14;12.60;;;11.43;;
35462;SDS011;21578;47.892;9.970;2022-07-24T08:39:01;11.87;;;10.83;;
35462;SDS011;21578;47.892;9.970;2022-07-24T08:43:50;13.70;;;12.50;;
35462;SDS011;21578;47.892;9.970;2022-07-24T08:48:39;12.40;;;11.30;;
35462;SDS011;21578;47.892;9.970;2022-07-24T08:53:29;11.43;;;10.33;;
35462;SDS011;21578;47.892;9.970;2022-07-24T08:58:16;9.53;;;8.73;;
35462;SDS011;21578;47.892;9.970;2022-07-24T09:03:05;10.50;;;9.60;;
35462;SDS011;21578;47.892;9.970;2022-07-24T09:08:04;10.60;;;9.50;;
35462;SDS011;21578;47.892;9.970;2022-07-24T09:12:52;11.77;;;10.60;;
35462;SDS011;21578;47.892;9.970;2022-07-24T09:17:47;12.13;;;10.93;;
35462;SDS011;21578;47.892;9.970;2022-07-24T09:22:37;12.30;;;11.20;;
35462;SDS011;21578;47.892;9.970;2022-07-24T09:27:25;11.70;;;10.70;;
35462;SDS011;21578;47.892;9.970;2022-07-24T09:32:13;12.63;;;11.43;;
35462;SDS011;21578;47.892;9.970;2022-07-24T09:37:09;10.50;;;9.60;;
35462;SDS011;21578;47.892;9.970;2022-07-24T09:41:59;9.90;;;9.00;;
35462;SDS011;21578;47.892;9.970;2022-07-24T09:46:47;10.20;;;9.30;;
35462;SDS011;21578;47.892;9.970;2022-07-24T09:51:41;10.10;;;9.20;;
35462;SDS011;21578;47.892;9.970;2022-07-24T09:56:28;10.67;;;9.67;;
35462;SDS011;21578;47.892;9.970;2022-07-24T10:01:19;9.77;;;8.97;;
35462;SDS011;21578;47.892;9.970;2022-07-24T10:06:08;9.23;;;8.53;;
35462;SDS011;21578;47.892;9.970;2022-07-24T10:10:57;9.80;;;8.90;;
35462;SDS011;21578;47.892;9.970;2022-07-24T10:15:51;8.87;;;8.17;;
35462;SDS011;21578;47.892;9.970;2022-07-24T10:20:41;9.70;;;8.80;;
35462;SDS011;21578;47.892;9.970;2022-07-24T10:25:30;9.37;;;8.57;;
35462;SDS011;21578;47.892;9.970;2022-07-24T10:30:35;8.70;;;7.90;;
35462;SDS011;21578;47.892;9.970;2022-07-24T10:35:23;8.50;;;7.80;;
35462;SDS011;21578;47.892;9.970;2022-07-24T10:40:17;8.50;;;7.80;;
35462;SDS011;21578;47.892;9.970;2022-07-24T10:45:15;7.97;;;7.23;;
35462;SDS011;21578;47.892;9.970;2022-07-24T10:50:03;8.57;;;7.97;;
35462;SDS011;21578;47.892;9.970;2022-07-24T11:00:20;7.63;;;7.10;;
35462;SDS011;21578;47.892;9.970;2022-07-24T11:05:25;7.30;;;6.80;;
35462;SDS011;21578;47.892;9.970;2022-07-24T11:10:14;7.93;;;7.13;;
35462;SDS011;21578;47.892;9.970;2022-07-24T11:15:03;7.80;;;7.10;;
35462;SDS011;21578;47.892;9.970;2022-07-24T11:20:09;10.67;;;9.67;;
35462;SDS011;21578;47.892;9.970;2022-07-24T11:30:05;8.17;;;7.37;;
35462;SDS011;21578;47.892;9.970;2022-07-24T11:34:53;8.80;;;7.90;;
35462;SDS011;21578;47.892;9.970;2022-07-24T11:39:40;8.57;;;7.80;;
35462;SDS011;21578;47.892;9.970;2022-07-24T11:44:29;8.20;;;7.53;;
35462;SDS011;21578;47.892;9.970;2022-07-24T11:49:19;7.70;;;7.10;;
35462;SDS011;21578;47.892;9.970;2022-07-24T11:54:06;8.60;;;7.80;;
35462;SDS011;21578;47.892;9.970;2022-07-24T11:58:53;7.83;;;7.13;;
35462;SDS011;21578;47.892;9.970;2022-07-24T12:03:47;8.13;;;7.13;;
35462;SDS011;21578;47.892;9.970;2022-07-24T12:08:36;7.43;;;6.73;;
35462;SDS011;21578;47.892;9.970;2022-07-24T12:13:23;6.83;;;6.33;;
35462;SDS011;21578;47.892;9.970;2022-07-24T12:18:11;8.53;;;7.73;;
35462;SDS011;21578;47.892;9.970;2022-07-24T12:22:59;7.00;;;6.37;;
35462;SDS011;21578;47.892;9.970;2022-07-24T12:27:49;6.97;;;6.37;;
35462;SDS011;21578;47.892;9.970;2022-07-24T12:32:37;6.47;;;5.97;;
35462;SDS011;21578;47.892;9.970;2022-07-24T12:37:38;6.80;;;6.20;;
35462;SDS011;21578;47.892;9.970;2022-07-24T12:42:29;6.50;;;6.05;;
35462;SDS011;21578;47.892;9.970;2022-07-24T12:47:18;7.22;;;6.63;;
35462;SDS011;21578;47.892;9.970;2022-07-24T12:52:05;6.80;;;6.22;;
35462;SDS011;21578;47.892;9.970;2022-07-24T12:57:07;7.38;;;6.78;;
35462;SDS011;21578;47.892;9.970;2022-07-24T13:01:56;6.18;;;5.78;;
35462;SDS011;21578;47.892;9.970;2022-07-24T13:06:47;6.45;;;5.95;;
35462;SDS011;21578;47.892;9.970;2022-07-24T13:11:35;6.05;;;5.60;;
35462;SDS011;21578;47.892;9.970;2022-07-24T13:16:22;6.40;;;5.90;;
35462;SDS011;21578;47.892;9.970;2022-07-24T13:21:13;6.03;;;5.53;;
35462;SDS011;21578;47.892;9.970;2022-07-24T13:26:01;6.13;;;5.63;;
35462;SDS011;21578;47.892;9.970;2022-07-24T13:30:48;6.28;;;5.72;;
35462;SDS011;21578;47.892;9.970;2022-07-24T13:35:35;5.93;;;5.43;;
35462;SDS011;21578;47.892;9.970;2022-07-24T13:40:22;6.72;;;6.20;;
35462;SDS011;21578;47.892;9.970;2022-07-24T13:45:11;5.80;;;5.40;;
35462;SDS011;21578;47.892;9.970;2022-07-24T13:49:58;6.15;;;5.60;;
35462;SDS011;21578;47.892;9.970;2022-07-24T13:54:45;5.50;;;5.10;;
35462;SDS011;21578;47.892;9.970;2022-07-24T13:59:32;5.53;;;4.97;;
35462;SDS011;21578;47.892;9.970;2022-07-24T14:04:20;6.20;;;5.70;;
35462;SDS011;21578;47.892;9.970;2022-07-24T14:09:07;6.13;;;5.63;;
35462;SDS011;21578;47.892;9.970;2022-07-24T14:13:54;5.78;;;5.38;;
35462;SDS011;21578;47.892;9.970;2022-07-24T14:18:42;5.50;;;5.10;;
35462;SDS011;21578;47.892;9.970;2022-07-24T14:23:30;6.25;;;5.85;;
35462;SDS011;21578;47.892;9.970;2022-07-24T14:28:17;7.00;;;5.55;;
35462;SDS011;21578;47.892;9.970;2022-07-24T14:33:04;6.85;;;5.85;;
35462;SDS011;21578;47.892;9.970;2022-07-24T14:37:51;6.57;;;5.90;;
35462;SDS011;21578;47.892;9.970;2022-07-24T14:42:40;6.50;;;6.00;;
35462;SDS011;21578;47.892;9.970;2022-07-24T14:47:27;6.60;;;5.65;;
35462;SDS011;21578;47.892;9.970;2022-07-24T14:52:14;6.10;;;5.68;;
35462;SDS011;21578;47.892;9.970;2022-07-24T14:57:03;6.35;;;5.75;;
35462;SDS011;21578;47.892;9.970;2022-07-24T15:01:51;6.13;;;5.63;;
35462;SDS011;21578;47.892;9.970;2022-07-24T15:06:39;6.20;;;5.72;;
35462;SDS011;21578;47.892;9.970;2022-07-24T15:11:27;5.35;;;4.90;;
35462;SDS011;21578;47.892;9.970;2022-07-24T15:16:14;5.75;;;5.25;;
35462;SDS011;21578;47.892;9.970;2022-07-24T15:21:02;5.75;;;5.35;;
35462;SDS011;21578;47.892;9.970;2022-07-24T15:25:49;6.15;;;5.65;;
35462;SDS011;21578;47.892;9.970;2022-07-24T15:30:37;6.72;;;6.13;;
35462;SDS011;21578;47.892;9.970;2022-07-24T15:35:24;5.90;;;5.40;;
35462;SDS011;21578;47.892;9.970;2022-07-24T15:40:12;6.18;;;5.60;;
35462;SDS011;21578;47.892;9.970;2022-07-24T15:45:00;5.65;;;5.28;;
35462;SDS011;21578;47.892;9.970;2022-07-24T15:49:47;5.80;;;5.30;;
35462;SDS011;21578;47.892;9.970;2022-07-24T15:54:34;5.45;;;5.05;;
35462;SDS011;21578;47.892;9.970;2022-07-24T15:59:22;6.32;;;5.82;;
35462;SDS011;21578;47.892;9.970;2022-07-24T16:04:09;5.03;;;4.72;;
35462;SDS011;21578;47.892;9.970;2022-07-24T16:08:58;5.88;;;5.47;;
35462;SDS011;21578;47.892;9.970;2022-07-24T16:13:45;5.40;;;5.10;;
35462;SDS011;21578;47.892;9.970;2022-07-24T16:18:33;5.53;;;5.10;;
35462;SDS011;21578;47.892;9.970;2022-07-24T16:23:21;4.95;;;4.65;;
35462;SDS011;21578;47.892;9.970;2022-07-24T16:28:08;6.50;;;4.97;;
35462;SDS011;21578;47.892;9.970;2022-07-24T16:32:55;5.93;;;5.53;;
35462;SDS011;21578;47.892;9.970;2022-07-24T16:37:44;6.65;;;5.13;;
35462;SDS011;21578;47.892;9.970;2022-07-24T16:42:31;5.47;;;5.03;;
35462;SDS011;21578;47.892;9.970;2022-07-24T16:47:18;6.72;;;6.18;;
35462;SDS011;21578;47.892;9.970;2022-07-24T16:52:05;5.95;;;5.55;;
35462;SDS011;21578;47.892;9.970;2022-07-24T16:56:54;6.13;;;5.65;;
35462;SDS011;21578;47.892;9.970;2022-07-24T17:01:41;6.00;;;5.50;;
35462;SDS011;21578;47.892;9.970;2022-07-24T17:06:28;6.30;;;5.45;;
35462;SDS011;21578;47.892;9.970;2022-07-24T17:11:15;6.65;;;5.55;;
35462;SDS011;21578;47.892;9.970;2022-07-24T17:16:04;5.30;;;4.82;;
35462;SDS011;21578;47.892;9.970;2022-07-24T17:20:51;5.90;;;5.40;;
35462;SDS011;21578;47.892;9.970;2022-07-24T17:25:39;5.72;;;5.32;;
35462;SDS011;21578;47.892;9.970;2022-07-24T17:30:27;6.93;;;5.03;;
35462;SDS011;21578;47.892;9.970;2022-07-24T17:35:17;5.63;;;5.13;;
35462;SDS011;21578;47.892;9.970;2022-07-24T17:40:05;6.25;;;5.50;;
35462;SDS011;21578;47.892;9.970;2022-07-24T17:44:53;6.00;;;5.50;;
35462;SDS011;21578;47.892;9.970;2022-07-24T17:49:40;5.38;;;4.97;;
35462;SDS011;21578;47.892;9.970;2022-07-24T17:54:28;5.68;;;5.28;;
35462;SDS011;21578;47.892;9.970;2022-07-24T17:59:16;5.70;;;5.30;;
35462;SDS011;21578;47.892;9.970;2022-07-24T18:04:03;6.40;;;5.80;;
35462;SDS011;21578;47.892;9.970;2022-07-24T18:08:50;5.97;;;5.47;;
35462;SDS011;21578;47.892;9.970;2022-07-24T18:13:38;5.35;;;5.05;;
35462;SDS011;21578;47.892;9.970;2022-07-24T18:18:25;5.72;;;5.32;;
35462;SDS011;21578;47.892;9.970;2022-07-24T18:23:13;5.60;;;5.10;;
35462;SDS011;21578;47.892;9.970;2022-07-24T18:28:00;6.18;;;5.28;;
35462;SDS011;21578;47.892;9.970;2022-07-24T18:32:48;6.10;;;5.60;;
35462;SDS011;21578;47.892;9.970;2022-07-24T18:37:35;5.82;;;5.43;;
35462;SDS011;21578;47.892;9.970;2022-07-24T18:42:22;6.07;;;5.65;;
35462;SDS011;21578;47.892;9.970;2022-07-24T18:47:09;6.53;;;5.97;;
35462;SDS011;21578;47.892;9.970;2022-07-24T18:51:57;6.20;;;5.70;;
35462;SDS011;21578;47.892;9.970;2022-07-24T18:56:44;7.40;;;6.82;;
35462;SDS011;21578;47.892;9.970;2022-07-24T19:01:31;6.38;;;5.80;;
35462;SDS011;21578;47.892;9.970;2022-07-24T19:06:19;7.38;;;6.75;;
35462;SDS011;21578;47.892;9.970;2022-07-24T19:11:07;6.80;;;6.30;;
35462;SDS011;21578;47.892;9.970;2022-07-24T19:15:54;6.90;;;6.40;;
35462;SDS011;21578;47.892;9.970;2022-07-24T19:20:41;6.95;;;6.40;;
35462;SDS011;21578;47.892;9.970;2022-07-24T19:25:28;6.80;;;6.20;;
35462;SDS011;21578;47.892;9.970;2022-07-24T19:30:17;6.78;;;6.28;;
35462;SDS011;21578;47.892;9.970;2022-07-24T19:35:05;7.70;;;6.72;;
35462;SDS011;21578;47.892;9.970;2022-07-24T19:39:52;6.85;;;6.40;;
35462;SDS011;21578;47.892;9.970;2022-07-24T19:44:40;7.30;;;6.70;;
35462;SDS011;21578;47.892;9.970;2022-07-24T19:49:29;7.50;;;6.90;;
35462;SDS011;21578;47.892;9.970;2022-07-24T19:54:16;7.83;;;7.13;;
35462;SDS011;21578;47.892;9.970;2022-07-24T19:59:06;9.93;;;7.50;;
35462;SDS011;21578;47.892;9.970;2022-07-24T20:03:53;7.67;;;6.97;;
35462;SDS011;21578;47.892;9.970;2022-07-24T20:08:41;8.27;;;7.57;;
35462;SDS011;21578;47.892;9.970;2022-07-24T20:13:28;8.93;;;8.13;;
35462;SDS011;21578;47.892;9.970;2022-07-24T20:18:15;8.07;;;7.40;;
35462;SDS011;21578;47.892;9.970;2022-07-24T20:23:02;7.27;;;6.67;;
35462;SDS011;21578;47.892;9.970;2022-07-24T20:27:51;7.80;;;7.20;;
35462;SDS011;21578;47.892;9.970;2022-07-24T20:32:38;8.43;;;7.60;;
35462;SDS011;21578;47.892;9.970;2022-07-24T20:37:25;7.97;;;7.37;;
35462;SDS011;21578;47.892;9.970;2022-07-24T20:42:13;7.93;;;7.33;;
35462;SDS011;21578;47.892;9.970;2022-07-24T20:47:01;8.53;;;7.80;;
35462;SDS011;21578;47.892;9.970;2022-07-24T20:51:48;8.00;;;7.30;;
35462;SDS011;21578;47.892;9.970;2022-07-24T20:56:35;8.27;;;7.57;;
35462;SDS011;21578;47.892;9.970;2022-07-24T21:01:23;7.33;;;6.67;;
35462;SDS011;21578;47.892;9.970;2022-07-24T21:06:11;8.13;;;7.33;;
35462;SDS011;21578;47.892;9.970;2022-07-24T21:10:58;7.90;;;7.20;;
35462;SDS011;21578;47.892;9.970;2022-07-24T21:15:45;7.97;;;7.27;;
35462;SDS011;21578;47.892;9.970;2022-07-24T21:20:32;7.10;;;6.57;;
35462;SDS011;21578;47.892;9.970;2022-07-24T21:25:21;7.93;;;7.07;;
35462;SDS011;21578;47.892;9.970;2022-07-24T21:30:08;7.67;;;7.07;;
35462;SDS011;21578;47.892;9.970;2022-07-24T21:34:56;8.20;;;7.40;;
35462;SDS011;21578;47.892;9.970;2022-07-24T21:39:43;7.97;;;7.27;;
35462;SDS011;21578;47.892;9.970;2022-07-24T21:44:31;7.40;;;6.90;;
35462;SDS011;21578;47.892;9.970;2022-07-24T21:49:18;8.20;;;7.50;;
35462;SDS011;21578;47.892;9.970;2022-07-24T21:54:05;8.33;;;7.63;;
35462;SDS011;21578;47.892;9.970;2022-07-24T21:58:52;7.53;;;6.93;;
35462;SDS011;21578;47.892;9.970;2022-07-24T22:03:41;8.03;;;7.37;;
35462;SDS011;21578;47.892;9.970;2022-07-24T22:08:28;7.90;;;7.30;;
35462;SDS011;21578;47.892;9.970;2022-07-24T22:13:15;8.20;;;7.60;;
35462;SDS011;21578;47.892;9.970;2022-07-24T22:18:02;8.00;;;7.30;;
35462;SDS011;21578;47.892;9.970;2022-07-24T22:22:51;8.17;;;7.57;;
35462;SDS011;21578;47.892;9.970;2022-07-24T22:27:38;8.03;;;7.33;;
35462;SDS011;21578;47.892;9.970;2022-07-24T22:32:25;9.00;;;8.10;;
35462;SDS011;21578;47.892;9.970;2022-07-24T22:37:12;8.50;;;7.90;;
35462;SDS011;21578;47.892;9.970;2022-07-24T22:42:01;7.93;;;7.23;;
35462;SDS011;21578;47.892;9.970;2022-07-24T22:46:49;8.67;;;7.90;;
35462;SDS011;21578;47.892;9.970;2022-07-24T22:51:36;9.30;;;8.40;;
35462;SDS011;21578;47.892;9.970;2022-07-24T22:56:24;9.10;;;8.23;;
35462;SDS011;21578;47.892;9.970;2022-07-24T23:01:14;8.33;;;7.63;;
35462;SDS011;21578;47.892;9.970;2022-07-24T23:06:02;8.83;;;7.93;;
35462;SDS011;21578;47.892;9.970;2022-07-24T23:10:50;9.67;;;8.77;;
35462;SDS011;21578;47.892;9.970;2022-07-24T23:15:37;12.43;;;8.97;;
35462;SDS011;21578;47.892;9.970;2022-07-24T23:20:25;10.77;;;9.77;;
35462;SDS011;21578;47.892;9.970;2022-07-24T23:25:12;10.00;;;9.20;;
35462;SDS011;21578;47.892;9.970;2022-07-24T23:29:59;10.67;;;9.57;;
35462;SDS011;21578;47.892;9.970;2022-07-24T23:34:46;9.83;;;9.03;;
35462;SDS011;21578;47.892;9.970;2022-07-24T23:39:35;10.27;;;9.43;;
35462;SDS011;21578;47.892;9.970;2022-07-24T23:44:22;9.47;;;8.60;;
35462;SDS011;21578;47.892;9.970;2022-07-24T23:49:09;10.27;;;9.33;;
35462;SDS011;21578;47.892;9.970;2022-07-24T23:53:56;10.33;;;9.30;;
35462;SDS011;21578;47.892;9.970;2022-07-24T23:58:45;10.17;;;9.30;;
